Time;durP1;ratioP1;P1;durP2;ratioP2;P2;SDS_P1;SDS_P2;PMS_P1;PMS_P2;Temp;Humidity;BMP_temperature;BMP_pressure;BME280_temperature;BME280_humidity;BME280_pressure;Samples;Min_cycle;Max_cycle;Signal;HPM_P1;HPM_P2
2022/06/13 00:00:10;;;;;;;;;3.00;3.00;;;;;15.09;54.60;101454.66;5097165;27;45204;-72
2022/06/13 00:02:36;;;;;;;;;5.75;5.00;;;;;15.02;54.77;101448.78;5096734;27;46295;-71
2022/06/13 00:05:04;;;;;;;;;4.50;3.25;;;;;15.04;55.15;101451.34;5095826;27;45333;-71
2022/06/13 00:07:29;;;;;;;;;4.00;4.00;;;;;14.97;55.32;101447.25;5097143;27;45223;-72
2022/06/13 00:09:55;;;;;;;;;4.00;4.00;;;;;14.90;55.59;101450.19;5096961;27;45210;-72
2022/06/13 00:12:20;;;;;;;;;6.00;5.50;;;;;14.86;55.88;101456.53;5096731;27;46138;-72
2022/06/13 00:14:46;;;;;;;;;4.50;4.50;;;;;14.83;56.11;101458.44;5097063;27;45276;-72
2022/06/13 00:17:11;;;;;;;;;5.25;5.25;;;;;14.80;56.29;101453.28;5097039;27;45414;-72
2022/06/13 00:19:36;;;;;;;;;5.00;3.00;;;;;14.77;56.05;101464.00;5097307;27;45546;-72
2022/06/13 00:22:02;;;;;;;;;4.00;4.00;;;;;14.79;56.48;101459.50;5096816;27;46516;-73
2022/06/13 00:24:28;;;;;;;;;6.75;4.25;;;;;14.75;56.79;101462.28;5096689;27;45419;-73
2022/06/13 00:26:53;;;;;;;;;5.00;4.25;;;;;14.72;56.98;101457.13;5096525;27;45384;-73
2022/06/13 00:29:18;;;;;;;;;3.50;3.50;;;;;14.64;57.07;101453.09;5097467;27;45361;-73
2022/06/13 00:31:44;;;;;;;;;5.25;4.00;;;;;14.67;57.25;101459.09;5095821;27;46724;-73
2022/06/13 00:34:09;;;;;;;;;5.25;3.75;;;;;14.68;57.08;101454.66;5096553;27;45366;-73
2022/06/13 00:36:34;;;;;;;;;6.50;4.50;;;;;14.67;57.62;101460.91;5097435;27;45433;-73
2022/06/13 00:39:00;;;;;;;;;3.00;3.00;;;;;14.65;57.34;101457.44;5096679;27;45410;-73
2022/06/13 00:41:32;;;;;;;;;4.00;4.00;;;;;14.63;57.23;101460.16;5096631;27;46130;-73
2022/06/13 00:43:59;;;;;;;;;6.75;5.00;;;;;14.63;57.67;101459.31;5094575;27;45562;-73
2022/06/13 00:46:33;;;;;;;;;7.00;5.00;;;;;14.63;57.52;101459.31;5096796;27;45411;-73
2022/06/13 00:49:05;;;;;;;;;3.25;3.00;;;;;14.60;57.91;101450.56;5096505;27;45463;-73
2022/06/13 00:51:35;;;;;;;;;5.00;3.50;;;;;14.57;58.08;101444.53;5079402;27;46271;-73
2022/06/13 00:54:00;;;;;;;;;6.75;4.75;;;;;14.59;57.93;101443.56;5095847;27;45501;-72
2022/06/13 00:56:28;;;;;;;;;4.75;4.75;;;;;14.54;58.12;101442.03;5096352;27;45307;-72
2022/06/13 00:59:04;;;;;;;;;6.25;4.75;;;;;14.55;58.16;101446.38;5095574;27;45536;-72
2022/06/13 01:01:32;;;;;;;;;6.00;5.00;;;;;14.53;58.50;101440.31;5095102;27;46098;-73
2022/06/13 01:04:01;;;;;;;;;8.50;4.25;;;;;14.52;58.46;101436.81;5095379;27;45344;-73
2022/06/13 01:06:27;;;;;;;;;5.25;5.00;;;;;14.53;58.58;101429.72;5086486;27;45389;-72
2022/06/13 01:08:53;;;;;;;;;7.75;6.00;;;;;14.51;58.69;101429.78;5096294;27;45546;-73
2022/06/13 01:11:22;;;;;;;;;4.75;4.75;;;;;14.50;59.04;101432.50;5094146;27;45529;-73
2022/06/13 01:14:24;;;;;;;;;4.50;4.50;;;;;14.48;58.88;101429.94;5095638;27;45552;-72
2022/06/13 01:17:11;;;;;;;;;5.50;5.00;;;;;14.48;59.09;101429.03;5094871;27;45281;-73
2022/06/13 01:19:51;;;;;;;;;3.50;3.50;;;;;14.46;59.56;101427.34;5096054;27;45256;-73
2022/06/13 01:22:25;;;;;;;;;5.00;3.75;;;;;14.48;59.45;101429.03;5096155;27;46337;-73
2022/06/13 01:25:38;;;;;;;;;9.00;4.00;;;;;14.47;59.49;101425.56;5094012;27;45877;-72
2022/06/13 01:28:39;;;;;;;;;5.25;5.00;;;;;14.44;59.79;101425.69;5013138;28;45395;-72
2022/06/13 01:31:10;;;;;;;;;6.75;4.75;;;;;14.39;59.83;101417.09;5096022;27;46792;-72
2022/06/13 01:34:08;;;;;;;;;4.75;4.75;;;;;14.39;60.00;101419.72;5116485;27;45329;-72
2022/06/13 01:37:10;;;;;;;;;5.50;5.50;;;;;14.31;60.59;101415.63;5116340;27;45341;-71
2022/06/13 01:40:30;;;;;;;;;7.25;6.00;;;;;14.30;60.92;101416.53;5083445;27;45338;-71
2022/06/13 01:43:08;;;;;;;;;7.75;5.25;;;;;14.27;61.31;101415.81;5101625;27;45304;-71
2022/06/13 01:45:47;;;;;;;;;7.75;4.75;;;;;14.22;61.34;101418.63;5095192;27;46446;-71
2022/06/13 01:48:36;;;;;;;;;7.25;5.75;;;;;14.17;61.71;101425.91;5095757;27;45310;-72
2022/06/13 01:51:01;;;;;;;;;3.75;3.75;;;;;14.15;61.69;101431.28;5075841;27;45327;-72
2022/06/13 01:53:43;;;;;;;;;6.25;5.25;;;;;14.16;62.06;101434.78;5092021;27;45625;-72
2022/06/13 01:56:14;;;;;;;;;6.00;4.00;;;;;14.12;62.12;101430.53;5092680;27;45331;-72
2022/06/13 01:59:04;;;;;;;;;6.25;5.25;;;;;14.13;62.02;101433.13;5095710;27;45403;-72
2022/06/13 02:01:43;;;;;;;;;7.75;6.50;;;;;14.12;62.19;101434.06;5095455;27;45333;-73
2022/06/13 02:04:21;;;;;;;;;5.25;5.00;;;;;14.09;62.09;101431.53;5095684;27;45309;-74
2022/06/13 02:06:53;;;;;;;;;4.75;4.75;;;;;14.11;62.17;101432.34;5094939;27;46468;-72
2022/06/13 02:09:27;;;;;;;;;4.75;4.75;;;;;14.09;62.58;101434.19;5094954;27;45469;-73
2022/06/13 02:11:55;;;;;;;;;5.00;4.00;;;;;14.11;62.63;101434.09;5094865;27;45373;-72
2022/06/13 02:14:31;;;;;;;;;4.75;3.25;;;;;14.07;62.78;101433.38;5093750;27;45328;-73
2022/06/13 02:17:13;;;;;;;;;3.25;2.00;;;;;14.04;62.97;101428.22;5097080;27;45699;-73
2022/06/13 02:19:51;;;;;;;;;7.75;6.50;;;;;14.02;63.07;101422.97;5099053;27;45367;-73
2022/06/13 02:22:32;;;;;;;;;9.75;6.75;;;;;13.99;63.19;101417.81;5098625;27;45342;-72
2022/06/13 02:25:03;;;;;;;;;11.25;5.00;;;;;14.00;63.20;101421.34;5098796;27;45380;-72
2022/06/13 02:27:37;;;;;;;;;8.25;6.00;;;;;13.97;63.56;101429.41;5098450;27;45467;-72
2022/06/13 02:30:07;;;;;;;;;9.50;5.00;;;;;13.95;63.67;101418.03;5097855;27;45499;-73
2022/06/13 02:32:42;;;;;;;;;7.50;6.00;;;;;13.95;63.62;101420.66;5098389;27;45366;-73
2022/06/13 02:35:14;;;;;;;;;6.50;5.00;;;;;13.96;63.77;101417.09;5098666;27;45486;-72
2022/06/13 02:37:43;;;;;;;;;6.75;6.75;;;;;13.94;63.80;101418.94;5096905;27;47068;-73
2022/06/13 02:40:12;;;;;;;;;7.50;6.25;;;;;13.90;64.55;101426.13;5098230;27;45409;-73
2022/06/13 02:42:58;;;;;;;;;7.75;7.00;;;;;13.86;64.61;101419.25;5098413;27;45448;-73
2022/06/13 02:45:30;;;;;;;;;9.25;8.75;;;;;13.87;64.61;101418.31;5098402;27;45374;-73
2022/06/13 02:48:06;;;;;;;;;8.50;7.75;;;;;13.88;64.88;101422.69;5097767;27;45385;-73
2022/06/13 02:50:41;;;;;;;;;8.00;8.00;;;;;13.84;64.58;101424.63;5097942;27;45333;-73
2022/06/13 02:53:25;;;;;;;;;10.25;7.25;;;;;13.83;65.09;101422.00;5097847;27;45160;-72
2022/06/13 02:56:12;;;;;;;;;8.50;7.00;;;;;13.81;65.47;101427.38;5098083;27;45338;-74
2022/06/13 02:58:47;;;;;;;;;7.75;6.25;;;;;13.81;65.32;101419.44;5086158;27;46430;-73
2022/06/13 03:01:19;;;;;;;;;5.50;5.00;;;;;13.78;65.31;101422.19;5098147;27;45423;-73
2022/06/13 03:03:53;;;;;;;;;12.00;7.00;;;;;13.79;65.50;101423.94;5098015;27;45542;-73
2022/06/13 03:06:57;;;;;;;;;8.75;6.75;;;;;13.75;65.75;101430.25;5097579;27;45455;-73
2022/06/13 03:09:31;;;;;;;;;9.00;7.00;;;;;13.75;65.92;101434.69;5070515;28;46533;-73
2022/06/13 03:12:07;;;;;;;;;8.25;8.25;;;;;13.70;65.99;101441.00;5096139;27;45419;-72
2022/06/13 03:14:46;;;;;;;;;8.75;8.75;;;;;13.68;66.37;101432.28;5097913;27;45314;-72
2022/06/13 03:17:27;;;;;;;;;12.00;8.75;;;;;13.70;66.43;101440.16;5098395;27;45363;-72
2022/06/13 03:20:01;;;;;;;;;10.00;8.00;;;;;13.67;66.67;101440.25;5097348;27;46285;-73
2022/06/13 03:22:47;;;;;;;;;14.25;9.25;;;;;13.66;66.55;101441.19;5097270;27;45654;-72
2022/06/13 03:25:42;;;;;;;;;8.50;7.00;;;;;13.64;66.76;101438.63;5097991;27;45490;-73
2022/06/13 03:28:15;;;;;;;;;8.50;5.50;;;;;13.63;66.84;101441.31;5092983;27;45445;-73
2022/06/13 03:30:57;;;;;;;;;13.75;10.00;;;;;13.62;66.81;101440.47;5098070;27;45917;-72
2022/06/13 03:33:42;;;;;;;;;13.25;8.25;;;;;13.65;66.80;101448.28;5097592;27;45247;-73
2022/06/13 03:36:11;;;;;;;;;8.50;8.00;;;;;13.65;67.51;101457.97;5095836;27;45244;-72
2022/06/13 03:38:46;;;;;;;;;8.25;5.75;;;;;13.62;66.93;101451.03;5097179;27;45460;-72
2022/06/13 03:41:17;;;;;;;;;14.75;8.25;;;;;13.63;67.30;101451.88;5093714;27;46214;-72
2022/06/13 03:43:51;;;;;;;;;10.00;7.25;;;;;13.64;67.10;101456.25;5097225;27;45236;-72
2022/06/13 03:46:29;;;;;;;;;8.25;7.00;;;;;13.66;67.12;101460.56;5096287;27;45279;-73
2022/06/13 03:49:09;;;;;;;;;6.50;6.50;;;;;13.67;67.08;101461.41;5097623;27;45341;-72
2022/06/13 03:51:41;;;;;;;;;8.00;8.00;;;;;13.68;67.08;101464.00;5097004;27;45351;-72
2022/06/13 03:54:20;;;;;;;;;8.00;6.25;;;;;13.70;67.08;101469.22;5095269;27;45477;-72
2022/06/13 03:56:54;;;;;;;;;6.50;6.50;;;;;13.65;67.25;101457.97;5097518;27;45308;-72
2022/06/13 03:59:25;;;;;;;;;7.00;7.00;;;;;13.66;67.26;101459.69;5097083;27;45413;-72
2022/06/13 04:02:11;;;;;;;;;8.75;7.25;;;;;13.60;67.28;101455.53;5096759;27;45281;-72
2022/06/13 04:04:41;;;;;;;;;10.50;8.75;;;;;13.64;67.49;101457.13;5096697;27;45490;-73
2022/06/13 04:07:06;;;;;;;;;8.00;8.00;;;;;13.65;67.35;101458.84;5096476;27;45378;-72
2022/06/13 04:09:40;;;;;;;;;6.50;6.00;;;;;13.67;67.24;101458.78;5096940;27;45488;-72
2022/06/13 04:12:17;;;;;;;;;8.50;6.00;;;;;13.69;67.60;101463.09;5095583;27;47019;-73
2022/06/13 04:15:01;;;;;;;;;9.00;7.25;;;;;13.68;67.50;101460.50;5096778;27;45257;-72
2022/06/13 04:18:17;;;;;;;;;11.00;7.50;;;;;13.68;67.27;101458.72;5096900;27;45372;-73
2022/06/13 04:21:15;;;;;;;;;6.75;6.00;;;;;13.69;67.53;101460.44;5051437;27;45397;-73
2022/06/13 04:23:53;;;;;;;;;6.75;6.75;;;;;13.71;67.35;101460.38;5050633;27;45690;-73
2022/06/13 04:26:51;;;;;;;;;7.00;7.00;;;;;13.75;67.66;101463.78;5096765;27;45438;-73
2022/06/13 04:29:22;;;;;;;;;9.00;7.75;;;;;13.74;66.91;101462.88;5084104;27;45426;-73
2022/06/13 04:31:52;;;;;;;;;8.00;6.50;;;;;13.71;67.33;101463.88;5097051;27;45326;-72
2022/06/13 04:34:24;;;;;;;;;10.25;7.50;;;;;13.73;67.68;101472.63;5095776;27;46330;-72
2022/06/13 04:36:51;;;;;;;;;9.00;8.00;;;;;13.71;67.46;101460.38;5095201;27;45401;-72
2022/06/13 04:39:24;;;;;;;;;10.75;8.25;;;;;13.79;67.67;101475.94;5095823;27;46193;-73
2022/06/13 04:41:52;;;;;;;;;14.50;10.25;;;;;13.80;67.53;101475.91;5095448;27;45756;-73
2022/06/13 04:44:24;;;;;;;;;8.25;7.00;;;;;13.81;67.67;101469.69;5096535;27;45220;-73
2022/06/13 04:46:51;;;;;;;;;10.75;9.00;;;;;13.83;67.66;101466.97;5096400;27;45349;-73
2022/06/13 04:49:31;;;;;;;;;8.00;8.00;;;;;13.85;67.62;101468.66;5096924;27;45486;-73
2022/06/13 04:52:01;;;;;;;;;9.25;9.25;;;;;13.85;67.41;101468.66;5096357;27;45393;-73
2022/06/13 04:54:33;;;;;;;;;11.00;9.50;;;;;13.93;67.58;101472.78;5096276;27;45713;-73
2022/06/13 04:56:59;;;;;;;;;12.50;8.50;;;;;13.97;67.38;101469.91;5095654;27;45526;-73
2022/06/13 04:59:25;;;;;;;;;9.50;9.25;;;;;14.23;67.24;101477.72;5095892;27;45431;-73
2022/06/13 05:01:51;;;;;;;;;9.25;8.25;;;;;14.60;66.63;101479.69;5094882;27;45501;-72
2022/06/13 05:04:19;;;;;;;;;11.25;9.25;;;;;15.07;65.65;101480.34;5096034;27;45412;-71
2022/06/13 05:06:58;;;;;;;;;12.00;9.00;;;;;15.56;64.52;101487.84;5095939;27;45449;-73
2022/06/13 05:09:30;;;;;;;;;10.75;8.00;;;;;16.01;63.32;101487.56;5094702;27;45495;-72
2022/06/13 05:12:04;;;;;;;;;9.00;8.00;;;;;16.41;62.39;101482.94;5095497;27;45450;-73
2022/06/13 05:14:51;;;;;;;;;8.25;8.25;;;;;16.72;61.37;101478.69;5094157;27;47041;-73
2022/06/13 05:18:08;;;;;;;;;9.50;9.50;;;;;17.17;60.10;101479.06;5095704;27;45499;-73
2022/06/13 05:21:04;;;;;;;;;11.00;8.00;;;;;17.62;59.06;101483.75;5092820;27;45390;-73
2022/06/13 05:23:45;;;;;;;;;7.25;6.00;;;;;17.90;58.13;101487.53;5095919;27;45341;-73
2022/06/13 05:26:11;;;;;;;;;8.75;6.25;;;;;17.92;57.54;101482.97;5094061;27;47379;-73
2022/06/13 05:28:36;;;;;;;;;9.00;7.25;;;;;17.94;57.45;101481.06;5094760;27;45555;-73
2022/06/13 05:31:14;;;;;;;;;6.50;5.75;;;;;18.01;56.93;101478.94;5094189;27;45344;-72
2022/06/13 05:33:42;;;;;;;;;9.00;9.00;;;;;18.03;56.71;101488.56;5094284;27;45542;-72
2022/06/13 05:36:11;;;;;;;;;13.50;7.50;;;;;18.09;56.85;101492.69;5095248;27;46609;-72
2022/06/13 05:38:46;;;;;;;;;11.00;7.25;;;;;18.04;56.64;101489.44;5093695;27;45453;-72
2022/06/13 05:41:11;;;;;;;;;10.25;7.75;;;;;18.00;56.29;101490.50;5095712;27;45236;-73
2022/06/13 05:43:37;;;;;;;;;11.00;6.50;;;;;17.89;56.69;101489.31;5095565;27;45528;-73
2022/06/13 05:46:07;;;;;;;;;10.00;7.00;;;;;17.85;56.72;101498.41;5094831;27;45557;-73
2022/06/13 05:48:33;;;;;;;;;9.00;9.00;;;;;17.85;56.53;101489.59;5095099;27;45479;-73
2022/06/13 05:50:59;;;;;;;;;11.00;8.50;;;;;17.86;56.64;101494.81;5095496;27;45213;-73
2022/06/13 05:53:26;;;;;;;;;10.50;7.50;;;;;17.83;56.50;101516.28;5095511;27;45587;-72
2022/06/13 05:55:56;;;;;;;;;7.25;7.25;;;;;17.78;56.78;101518.31;5094985;27;45618;-72
2022/06/13 05:58:23;;;;;;;;;8.25;8.25;;;;;17.66;57.02;101511.91;5111001;27;45583;-73
2022/06/13 06:00:54;;;;;;;;;13.75;10.75;;;;;17.51;57.17;101508.28;5095104;27;45592;-73
2022/06/13 06:03:21;;;;;;;;;10.00;7.00;;;;;17.31;57.43;101509.34;5095586;27;45266;-72
2022/06/13 06:05:47;;;;;;;;;9.50;8.25;;;;;17.11;57.58;101513.09;5091854;27;47209;-73
2022/06/13 06:08:17;;;;;;;;;10.00;8.00;;;;;16.91;58.31;101522.91;5095096;27;45366;-74
2022/06/13 06:10:43;;;;;;;;;14.00;9.50;;;;;16.71;58.43;101516.84;5095158;27;45454;-77
2022/06/13 06:13:11;;;;;;;;;11.50;10.00;;;;;16.55;58.93;101516.78;5094993;27;45553;-72
2022/06/13 06:15:39;;;;;;;;;9.00;9.00;;;;;16.44;59.49;101519.97;5100900;27;45367;-78
2022/06/13 06:18:05;;;;;;;;;11.00;8.75;;;;;16.38;59.74;101520.25;5096086;27;45326;-71
2022/06/13 06:20:30;;;;;;;;;10.00;9.00;;;;;16.33;59.95;101522.28;5115973;27;45252;-72
2022/06/13 06:22:55;;;;;;;;;9.00;9.00;;;;;16.24;60.18;101528.91;5108381;27;45517;-79
2022/06/13 06:25:21;;;;;;;;;8.00;7.00;;;;;16.13;60.54;101533.88;5094735;27;46503;-72
2022/06/13 06:27:47;;;;;;;;;9.25;8.75;;;;;16.06;60.85;101535.97;5094331;27;45336;-70
2022/06/13 06:30:15;;;;;;;;;10.25;9.75;;;;;15.83;60.78;101505.19;5110343;27;45358;-71
2022/06/13 06:32:41;;;;;;;;;10.50;9.00;;;;;15.99;61.11;101539.88;5094959;27;45356;-70
2022/06/13 06:35:07;;;;;;;;;10.00;8.00;;;;;15.95;60.97;101523.22;5094724;27;45606;-75
2022/06/13 06:37:32;;;;;;;;;9.25;9.00;;;;;15.90;61.30;101523.44;5094850;27;45352;-76
2022/06/13 06:39:58;;;;;;;;;9.25;7.25;;;;;15.93;61.32;101529.53;5094568;27;45351;-76
2022/06/13 06:42:24;;;;;;;;;10.75;10.25;;;;;15.91;61.33;101529.59;5095781;27;45178;-78
2022/06/13 06:44:49;;;;;;;;;9.50;9.00;;;;;15.89;61.71;101540.28;5110698;27;45941;-71
2022/06/13 06:47:15;;;;;;;;;11.25;11.00;;;;;15.90;61.72;101543.81;5094539;27;45314;-71
2022/06/13 06:49:40;;;;;;;;;12.50;8.75;;;;;15.90;61.64;101549.97;5095839;27;45199;-74
2022/06/13 06:52:06;;;;;;;;;10.00;10.00;;;;;15.91;61.64;101556.13;5105209;27;46673;-77
2022/06/13 07:00:03;;;;;;;;;12.00;10.00;;;;;15.96;61.47;101540.84;5074373;27;45438;-77
2022/06/13 07:02:29;;;;;;;;;12.50;9.25;;;;;16.04;61.50;101548.47;5095149;27;45481;-77
2022/06/13 07:04:59;;;;;;;;;9.50;9.50;;;;;16.10;61.49;101558.78;5098004;27;46635;-78
2022/06/13 07:07:25;;;;;;;;;7.00;6.50;;;;;16.10;60.88;101541.97;5099125;27;45322;-76
2022/06/13 07:09:51;;;;;;;;;9.75;8.25;;;;;16.21;61.14;101555.59;5095519;27;45386;-74
2022/06/13 07:12:17;;;;;;;;;9.00;7.25;;;;;16.25;60.67;101549.19;5096936;27;46281;-75
2022/06/13 07:14:42;;;;;;;;;8.00;8.00;;;;;16.33;60.41;101562.13;5079185;27;45761;-76
2022/06/13 07:17:08;;;;;;;;;9.00;8.25;;;;;16.41;60.07;101551.97;5085469;27;45419;-73
2022/06/13 07:19:35;;;;;;;;;8.50;7.25;;;;;16.49;60.36;101552.44;5093625;27;45521;-72
2022/06/13 07:22:01;;;;;;;;;8.75;7.25;;;;;16.57;59.92;101553.88;5096023;27;45459;-76
2022/06/13 07:24:27;;;;;;;;;9.50;8.00;;;;;16.59;59.97;101539.59;5095393;27;48267;-70
2022/06/13 07:26:53;;;;;;;;;12.00;10.25;;;;;16.77;59.71;101558.19;5095905;27;45468;-73
2022/06/13 07:29:19;;;;;;;;;6.50;6.50;;;;;16.86;58.56;101562.16;5094506;27;45475;-70
2022/06/13 07:31:55;;;;;;;;;9.25;8.00;;;;;16.88;57.96;101558.50;5095516;27;45522;-69
2022/06/13 07:34:23;;;;;;;;;6.00;6.00;;;;;16.90;58.24;101555.75;5096084;27;46676;-70
2022/06/13 07:36:51;;;;;;;;;6.50;6.50;;;;;16.94;58.02;101557.28;5095648;27;45408;-70
2022/06/13 07:39:17;;;;;;;;;11.50;9.50;;;;;17.00;58.03;101559.69;5095890;27;45427;-70
2022/06/13 07:41:43;;;;;;;;;8.00;6.50;;;;;17.11;57.45;101545.84;5096876;27;45941;-69
2022/06/13 07:44:35;;;;;;;;;10.00;6.75;;;;;17.28;57.55;101558.25;5097328;27;45263;-75
2022/06/13 07:47:00;;;;;;;;;8.00;6.50;;;;;17.36;56.82;101558.69;5089841;27;45625;-72
2022/06/13 07:49:26;;;;;;;;;6.00;6.00;;;;;17.35;57.15;101556.97;5097723;27;45481;-72
2022/06/13 07:51:52;;;;;;;;;8.25;6.00;;;;;17.38;56.99;101562.13;5097642;27;45512;-71
2022/06/13 07:54:18;;;;;;;;;11.50;7.75;;;;;17.38;56.98;101562.13;5130358;27;46467;-75
2022/06/13 07:56:43;;;;;;;;;15.25;11.00;;;;;17.47;55.59;101558.09;5094525;27;45440;-73
2022/06/13 07:59:19;;;;;;;;;10.00;8.25;;;;;17.56;55.68;101566.56;5097382;27;45432;-74
2022/06/13 08:01:45;;;;;;;;;6.50;5.25;;;;;17.60;54.24;101563.63;5097879;27;45435;-75
2022/06/13 08:04:11;;;;;;;;;7.75;5.50;;;;;17.70;53.71;101566.66;5095575;27;48055;-73
2022/06/13 08:06:41;;;;;;;;;8.00;5.75;;;;;17.71;53.65;101571.03;5095576;27;45242;-73
2022/06/13 08:09:07;;;;;;;;;6.25;5.75;;;;;17.90;53.50;101573.53;5096276;27;45477;-73
2022/06/13 08:11:36;;;;;;;;;7.25;6.00;;;;;18.03;52.41;101573.75;5095214;27;45485;-72
2022/06/13 08:14:03;;;;;;;;;7.00;5.50;;;;;18.08;52.54;101563.69;5092920;27;47344;-73
2022/06/13 08:16:29;;;;;;;;;6.25;5.75;;;;;18.18;52.50;101568.50;5096469;27;45488;-72
2022/06/13 08:18:54;;;;;;;;;5.00;5.00;;;;;18.24;52.46;101571.69;5096026;27;45503;-71
2022/06/13 08:21:21;;;;;;;;;4.75;4.75;;;;;18.25;50.73;101562.75;5096882;27;45347;-73
2022/06/13 08:23:47;;;;;;;;;7.50;6.00;;;;;18.30;50.97;101573.13;5096677;27;47252;-72
2022/06/13 08:26:13;;;;;;;;;6.25;4.50;;;;;18.34;50.80;101568.50;5096438;27;45463;-70
2022/06/13 08:28:38;;;;;;;;;6.00;6.00;;;;;18.41;50.75;101577.84;5096799;27;45273;-70
2022/06/13 08:31:12;;;;;;;;;12.50;11.75;;;;;18.50;50.33;101576.44;5097053;27;45748;-74
2022/06/13 08:33:39;;;;;;;;;11.25;7.00;;;;;18.58;49.95;101573.34;5095073;27;47285;-73
2022/06/13 08:36:05;;;;;;;;;6.00;5.25;;;;;18.66;50.15;101573.75;5096362;27;45286;-73
2022/06/13 08:38:31;;;;;;;;;6.00;6.00;;;;;18.75;49.64;101575.88;5095094;27;45363;-71
2022/06/13 08:41:32;;;;;;;;;8.50;7.00;;;;;18.89;49.61;101579.53;5096387;27;45246;-74
2022/06/13 08:44:09;;;;;;;;;8.25;5.75;;;;;19.05;49.09;101577.69;5079128;27;46229;-74
2022/06/13 08:47:02;;;;;;;;;9.50;5.00;;;;;19.19;48.39;101570.69;5092155;27;45349;-69
2022/06/13 08:49:33;;;;;;;;;7.00;4.00;;;;;19.30;48.11;101575.34;5065585;27;45527;-70
2022/06/13 08:52:27;;;;;;;;;4.25;4.25;;;;;19.35;48.11;101570.59;5096800;27;45320;-70
2022/06/13 08:55:04;;;;;;;;;7.50;6.75;;;;;19.44;48.53;101569.16;5094617;27;48123;-71
2022/06/13 08:57:34;;;;;;;;;3.50;3.25;;;;;19.55;46.55;101574.69;5129444;27;45432;-73
2022/06/13 09:00:06;;;;;;;;;5.50;5.50;;;;;19.56;46.29;101576.41;5096525;27;45389;-74
2022/06/13 09:02:34;;;;;;;;;4.75;3.25;;;;;19.56;45.65;101579.06;5112408;27;45386;-77
2022/06/13 09:05:23;;;;;;;;;7.50;4.00;;;;;19.53;45.11;101576.59;5096071;27;47010;-72
2022/06/13 09:07:57;;;;;;;;;5.50;5.50;;;;;19.54;45.71;101570.31;5095596;27;45349;-72
2022/06/13 09:10:27;;;;;;;;;4.25;4.25;;;;;19.59;45.88;101568.22;5095796;27;45321;-74
2022/06/13 09:13:07;;;;;;;;;6.00;4.50;;;;;19.66;45.17;101561.53;5096842;27;45395;-73
2022/06/13 09:15:44;;;;;;;;;7.25;5.00;;;;;19.66;45.68;101568.69;5096072;27;46226;-72
2022/06/13 09:18:18;;;;;;;;;6.75;4.50;;;;;19.73;45.69;101577.16;5095795;27;45302;-69
2022/06/13 09:21:00;;;;;;;;;6.00;6.00;;;;;19.78;44.44;101572.38;5094239;27;45313;-70
2022/06/13 09:23:47;;;;;;;;;4.00;2.25;;;;;19.84;44.15;101577.31;5094399;27;45413;-69
2022/06/13 09:26:16;;;;;;;;;2.75;2.75;;;;;19.85;43.53;101581.72;5095246;27;45513;-71
2022/06/13 09:29:00;;;;;;;;;6.75;4.00;;;;;19.90;43.75;101576.13;5095452;27;45370;-71
2022/06/13 09:31:32;;;;;;;;;4.25;4.25;;;;;19.94;43.63;101566.97;5094250;27;45429;-70
2022/06/13 09:34:08;;;;;;;;;6.00;6.00;;;;;19.94;43.69;101570.47;5095803;27;45403;-70
2022/06/13 09:36:39;;;;;;;;;3.00;3.00;;;;;20.03;43.06;101581.50;5094391;27;45457;-69
2022/06/13 09:39:08;;;;;;;;;5.25;3.00;;;;;20.09;42.93;101573.09;5095977;27;45199;-69
2022/06/13 09:41:53;;;;;;;;;7.75;7.75;;;;;20.19;42.78;101571.59;5095934;27;45461;-71
2022/06/13 09:44:37;;;;;;;;;6.00;3.50;;;;;20.32;41.82;101566.28;5096015;27;45401;-76
2022/06/13 09:47:43;;;;;;;;;3.00;3.00;;;;;20.26;41.66;101572.00;5095809;27;45504;-70
2022/06/13 09:50:27;;;;;;;;;5.00;5.00;;;;;20.35;42.15;101575.91;5093522;27;45413;-70
2022/06/13 09:53:07;;;;;;;;;6.00;4.50;;;;;20.47;42.95;101580.44;5095210;27;45416;-69
2022/06/13 09:55:56;;;;;;;;;7.75;6.25;;;;;20.63;42.74;101582.94;5095786;27;45319;-71
2022/06/13 09:58:58;;;;;;;;;5.00;4.75;;;;;20.71;42.31;101564.59;5093488;27;46085;-74
2022/06/13 10:01:44;;;;;;;;;7.00;4.50;;;;;20.85;41.91;101574.34;5074697;27;45234;-74
2022/06/13 10:04:21;;;;;;;;;9.00;7.00;;;;;20.93;40.20;101568.50;5075118;27;45377;-77
2022/06/13 10:06:50;;;;;;;;;4.75;4.75;;;;;20.91;42.06;101574.91;5075491;27;45239;-73
2022/06/13 10:09:30;;;;;;;;;5.00;3.75;;;;;21.00;41.56;101571.59;5090559;27;48026;-72
2022/06/13 10:12:09;;;;;;;;;4.00;4.00;;;;;21.07;40.42;101572.88;5075051;28;45217;-70
2022/06/13 10:14:57;;;;;;;;;4.00;3.00;;;;;21.02;40.64;101561.63;5075544;27;45456;-75
2022/06/13 10:17:34;;;;;;;;;4.75;3.75;;;;;20.92;41.16;101580.16;5076978;27;45322;-72
2022/06/13 10:20:21;;;;;;;;;2.25;2.25;;;;;20.97;41.28;101578.03;5075601;28;45485;-72
2022/06/13 10:23:05;;;;;;;;;4.25;4.25;;;;;21.04;41.03;101567.75;5074840;28;45515;-72
2022/06/13 10:26:03;;;;;;;;;3.75;3.75;;;;;21.17;40.68;101573.94;5075800;28;45426;-69
2022/06/13 10:28:31;;;;;;;;;6.00;5.00;;;;;21.21;40.68;101566.56;5074963;27;45567;-72
2022/06/13 10:31:07;;;;;;;;;3.25;2.75;;;;;21.23;41.01;101567.31;5074377;28;45410;-71
2022/06/13 10:33:53;;;;;;;;;4.00;4.00;;;;;21.30;40.64;101575.78;5074716;28;45300;-69
2022/06/13 10:36:35;;;;;;;;;11.00;9.50;;;;;21.24;40.82;101568.19;5085814;27;45574;-69
2022/06/13 10:39:05;;;;;;;;;10.25;7.00;;;;;21.29;40.99;101555.34;5096887;27;45485;-72
2022/06/13 10:41:36;;;;;;;;;7.25;4.00;;;;;21.33;40.22;101566.69;5097908;27;45526;-70
2022/06/13 10:44:03;;;;;;;;;4.75;3.50;;;;;21.28;40.19;101556.31;5097715;27;45368;-70
2022/06/13 10:46:29;;;;;;;;;8.25;5.50;;;;;21.38;40.19;101552.03;5098467;27;45238;-71
2022/06/13 10:49:03;;;;;;;;;4.50;3.75;;;;;21.45;39.96;101560.44;5098390;27;45502;-73
2022/06/13 10:51:29;;;;;;;;;8.00;6.00;;;;;21.53;40.10;101568.78;5097952;27;45456;-71
2022/06/13 10:54:07;;;;;;;;;6.50;6.00;;;;;21.70;39.84;101562.28;5096556;27;45255;-71
2022/06/13 10:56:46;;;;;;;;;8.75;6.00;;;;;21.79;39.69;101565.25;5097414;27;45483;-70
2022/06/13 10:59:30;;;;;;;;;9.50;6.75;;;;;21.96;39.57;101561.34;5098202;27;45643;-71
2022/06/13 11:02:00;;;;;;;;;9.50;8.00;;;;;22.10;39.11;101561.19;5096240;27;45766;-70
2022/06/13 11:04:34;;;;;;;;;5.25;5.00;;;;;22.20;38.61;101560.50;5097920;27;45297;-70
2022/06/13 11:07:13;;;;;;;;;7.75;5.00;;;;;22.17;38.65;101561.56;5098236;27;45218;-71
2022/06/13 11:09:38;;;;;;;;;4.75;3.50;;;;;22.25;38.13;101559.19;5098650;27;45398;-74
2022/06/13 11:12:36;;;;;;;;;4.00;3.00;;;;;22.31;38.14;101552.53;5097343;27;45344;-72
2022/06/13 11:23:49;;;;;;;;;7.00;7.00;;;;;22.29;37.60;101554.47;5097416;27;45766;-72
2022/06/13 11:29:18;;;;;;;;;5.25;4.25;;;;;22.21;37.94;101562.22;5085116;27;45548;-73
2022/06/13 11:31:56;;;;;;;;;7.75;4.50;;;;;22.33;37.71;101554.13;5097758;27;45685;-71
2022/06/13 11:34:24;;;;;;;;;5.75;3.50;;;;;22.40;37.81;101559.88;5097066;27;45780;-69
2022/06/13 11:36:59;;;;;;;;;5.25;4.00;;;;;22.50;37.76;101549.34;5097312;27;45499;-70
2022/06/13 11:39:41;;;;;;;;;5.50;5.50;;;;;22.58;36.62;101560.34;5097388;27;45317;-69
2022/06/13 11:42:27;;;;;;;;;6.00;4.75;;;;;22.57;37.19;101547.06;5096492;27;45556;-71
2022/06/13 11:45:16;;;;;;;;;2.50;2.50;;;;;22.52;37.29;101550.09;5097231;27;45363;-74
2022/06/13 11:47:47;;;;;;;;;3.75;3.75;;;;;22.51;36.93;101553.75;5095668;27;45450;-72
2022/06/13 11:50:19;;;;;;;;;3.00;3.00;;;;;22.57;36.92;101547.91;5096971;27;45346;-71
2022/06/13 11:55:31;;;;;;;;;13.75;10.50;;;;;22.73;36.95;101547.59;5096863;27;45328;-72
2022/06/13 11:58:04;;;;;;;;;4.50;4.00;;;;;22.84;37.07;101552.13;5096026;27;45307;-71
2022/06/13 12:00:37;;;;;;;;;3.00;3.00;;;;;22.96;37.08;101536.94;5096958;27;45370;-72
2022/06/13 12:03:15;;;;;;;;;2.25;2.25;;;;;22.99;36.61;101533.13;5130537;27;45253;-75
2022/06/13 12:05:42;;;;;;;;;5.00;5.00;;;;;22.95;36.20;101524.50;5097105;27;46463;-71
2022/06/13 12:08:16;;;;;;;;;3.00;3.00;;;;;22.94;36.09;101535.31;5095602;27;45729;-73
2022/06/13 12:10:58;;;;;;;;;7.75;6.00;;;;;22.89;36.65;101531.16;5097285;27;45308;-70
2022/06/13 12:13:24;;;;;;;;;4.00;4.00;;;;;23.01;36.75;101523.13;5079805;27;45210;-72
2022/06/13 12:15:59;;;;;;;;;5.00;5.00;;;;;22.98;35.97;101526.06;5098169;27;45853;-74